Lewisburg, Ohio
Current Conditions -  °F | °C
As of 5:56 AM on Tuesday 21 Oct 2014 (Local Time) from KDAY Reporting Station
Overcast Overcast  
Wind Chill: 50°   Ceiling: 5000
Heat Index: 50°   Visibility: 10mi
Dew Point: 45°   Wind: 8mph
Humidity: 83%   Direction: 320°NW
Pressure: 29.94"   Gusts: NA
Location:  39.85°N, 84.54°W
Report Text: KDAY 210956Z 32007KT 10SM OVC050 10/07 A2994 RMK AO2 SLP139 T01000072
Loading
Personal Weather Stations






























Interactive Weather Map
Tropical Storm Tracking
New forecast layout! Learn more

10-Day Weather Forecast

Advertisements
Track Severe Weather on mobile